createdAt,value
2022-12-01T00:00:33.446Z,20.10
2022-12-01T00:03:23.767Z,21.53
2022-12-01T00:06:12.707Z,21.57
2022-12-01T00:09:19.649Z,20.93
2022-12-01T00:12:07.424Z,21.60
2022-12-01T00:15:01.141Z,20.83
2022-12-01T00:17:47.824Z,21.00
2022-12-01T00:20:36.386Z,22.77
2022-12-01T00:23:23.709Z,21.00
2022-12-01T00:26:10.298Z,20.07
2022-12-01T00:28:58.895Z,22.33
2022-12-01T00:31:45.702Z,20.13
2022-12-01T00:34:32.470Z,20.63
2022-12-01T00:37:20.689Z,19.60
2022-12-01T00:40:09.067Z,19.50
2022-12-01T00:42:55.875Z,18.57
2022-12-01T00:45:44.184Z,19.83
2022-12-01T00:48:30.747Z,18.40
2022-12-01T00:51:17.641Z,19.33
2022-12-01T00:54:05.872Z,20.40
2022-12-01T00:56:52.456Z,20.10
2022-12-01T00:59:39.095Z,20.97
2022-12-01T01:02:26.164Z,21.27
2022-12-01T01:05:12.725Z,18.77
2022-12-01T01:07:59.515Z,20.17
2022-12-01T01:10:49.460Z,19.33
2022-12-01T01:13:37.115Z,19.90
2022-12-01T01:16:24.056Z,20.87
2022-12-01T01:19:10.824Z,22.33
2022-12-01T01:21:57.731Z,17.83
2022-12-01T01:24:44.488Z,21.00
2022-12-01T01:27:32.589Z,21.60
2022-12-01T01:30:19.858Z,21.07
2022-12-01T01:33:06.536Z,20.57
2022-12-01T01:35:53.243Z,19.47
2022-12-01T01:38:40.056Z,20.60
2022-12-01T01:41:27.147Z,20.13
2022-12-01T01:44:49.262Z,19.90
2022-12-01T01:47:38.403Z,21.00
2022-12-01T01:50:29.346Z,22.23
2022-12-01T01:53:16.749Z,20.40
2022-12-01T01:56:04.422Z,19.27
2022-12-01T01:58:51.685Z,22.20
2022-12-01T02:01:39.773Z,22.50
2022-12-01T02:04:27.725Z,21.67
2022-12-01T02:07:18.531Z,22.33
2022-12-01T02:10:07.115Z,23.53
2022-12-01T02:13:06.881Z,22.40
2022-12-01T02:16:03.960Z,25.07
2022-12-01T02:19:00.567Z,23.23
2022-12-01T02:21:59.071Z,21.90
2022-12-01T02:24:58.608Z,20.73
2022-12-01T02:28:09.594Z,24.63
2022-12-01T02:31:03.256Z,22.90
2022-12-01T02:33:54.301Z,22.27
2022-12-01T02:36:50.340Z,23.37
2022-12-01T02:39:43.569Z,23.50
2022-12-01T02:42:53.600Z,22.43
2022-12-01T02:45:46.727Z,24.37
2022-12-01T02:48:37.465Z,24.10
2022-12-01T02:51:29.207Z,23.50
2022-12-01T02:54:16.791Z,22.50
2022-12-01T02:57:03.522Z,22.87
2022-12-01T02:59:55.408Z,24.00
2022-12-01T03:02:51.968Z,22.73
2022-12-01T03:05:44.154Z,21.10
2022-12-01T03:08:46.110Z,25.43
2022-12-01T03:11:51.159Z,21.87
2022-12-01T03:14:45.384Z,22.80
2022-12-01T03:17:41.448Z,24.83
2022-12-01T03:20:36.726Z,24.37
2022-12-01T03:23:28.806Z,27.27
2022-12-01T03:26:24.145Z,25.70
2022-12-01T03:29:15.885Z,23.73
2022-12-01T03:32:08.619Z,24.40
2022-12-01T03:34:59.235Z,23.10
2022-12-01T03:37:53.492Z,22.70
2022-12-01T03:40:43.322Z,24.20
2022-12-01T03:43:35.743Z,22.13
2022-12-01T03:46:30.583Z,23.57
2022-12-01T03:49:19.248Z,22.47
2022-12-01T03:52:16.978Z,26.13
2022-12-01T03:55:12.620Z,25.13
2022-12-01T03:58:06.690Z,25.47
2022-12-01T04:00:57.686Z,23.10
2022-12-01T04:03:46.858Z,24.73
2022-12-01T04:06:33.781Z,24.07
2022-12-01T04:09:20.526Z,25.00
2022-12-01T04:12:24.838Z,23.63
2022-12-01T04:15:16.807Z,24.60
2022-12-01T04:18:03.219Z,23.47
2022-12-01T04:20:51.031Z,24.83
2022-12-01T04:23:55.212Z,22.90
2022-12-01T04:26:42.281Z,23.83
2022-12-01T04:29:28.748Z,26.20
2022-12-01T04:32:17.060Z,26.20
2022-12-01T04:35:03.599Z,26.10
2022-12-01T04:37:50.509Z,26.63
2022-12-01T04:40:39.319Z,23.80
2022-12-01T04:43:26.213Z,23.67
2022-12-01T04:46:13.009Z,25.40
2022-12-01T04:49:01.312Z,25.47
2022-12-01T04:51:48.875Z,26.93
2022-12-01T04:54:35.568Z,24.03
2022-12-01T04:57:22.280Z,25.07
2022-12-01T05:00:13.423Z,24.57
2022-12-01T05:03:00.527Z,27.20
2022-12-01T05:05:48.637Z,26.00
2022-12-01T05:08:35.477Z,25.03
2022-12-01T05:11:22.396Z,26.53
2022-12-01T05:14:09.315Z,26.07
2022-12-01T05:16:58.181Z,21.70
2022-12-01T05:20:03.161Z,28.50
2022-12-01T05:23:10.884Z,28.20
2022-12-01T05:25:59.712Z,28.53
2022-12-01T05:28:46.462Z,30.07
2022-12-01T05:31:33.931Z,29.10
2022-12-01T05:34:20.448Z,28.13
2022-12-01T05:37:07.663Z,25.87
2022-12-01T05:39:55.598Z,30.73
2022-12-01T05:42:43.745Z,26.63
2022-12-01T05:45:32.901Z,31.10
2022-12-01T05:48:21.351Z,31.30
2022-12-01T05:51:13.595Z,28.07
2022-12-01T05:54:02.252Z,28.50
2022-12-01T05:56:51.702Z,32.63
2022-12-01T05:59:39.516Z,31.47
2022-12-01T06:02:28.413Z,27.80
2022-12-01T06:05:16.769Z,30.77
2022-12-01T06:08:04.908Z,31.03
2022-12-01T06:10:52.116Z,29.20
2022-12-01T06:13:41.031Z,29.73
2022-12-01T06:16:28.407Z,31.30
2022-12-01T06:19:15.043Z,31.43
2022-12-01T06:22:01.694Z,31.40
2022-12-01T06:24:48.629Z,32.43
2022-12-01T06:27:35.523Z,30.93
2022-12-01T06:30:25.678Z,32.13
2022-12-01T06:33:12.711Z,29.87
2022-12-01T06:36:00.162Z,32.77
2022-12-01T06:38:46.918Z,29.13
2022-12-01T06:41:33.638Z,32.67
2022-12-01T06:44:20.545Z,32.10
2022-12-01T06:47:08.993Z,34.33
2022-12-01T06:49:55.467Z,34.00
2022-12-01T06:52:42.405Z,31.70
2022-12-01T06:55:29.317Z,33.90
2022-12-01T06:58:16.835Z,35.13
2022-12-01T07:01:09.659Z,30.07
2022-12-01T07:03:57.486Z,30.87
2022-12-01T07:06:44.302Z,29.47
2022-12-01T07:09:30.999Z,28.23
2022-12-01T07:12:17.791Z,29.40
2022-12-01T07:15:05.306Z,30.57
2022-12-01T07:17:52.400Z,30.87
2022-12-01T07:20:40.102Z,31.47
2022-12-01T07:23:26.860Z,32.73
2022-12-01T07:26:15.874Z,28.83
2022-12-01T07:29:02.422Z,47.43
2022-12-01T07:31:49.146Z,31.80
2022-12-01T07:34:36.029Z,30.20
2022-12-01T07:37:24.341Z,29.37
2022-12-01T07:40:12.057Z,25.40
2022-12-01T07:42:58.638Z,26.47
2022-12-01T07:45:45.447Z,25.07
2022-12-01T07:48:32.009Z,27.03
2022-12-01T07:51:18.953Z,26.33
2022-12-01T07:54:07.876Z,26.73
2022-12-01T07:56:54.558Z,35.10
2022-12-01T07:59:41.116Z,30.77
2022-12-01T08:02:28.013Z,30.13
2022-12-01T08:05:14.897Z,26.00
2022-12-01T08:08:03.845Z,26.60
2022-12-01T08:10:57.365Z,25.83
2022-12-01T08:13:45.722Z,27.90
2022-12-01T08:16:32.675Z,23.57
2022-12-01T08:19:19.378Z,25.10
2022-12-01T08:22:06.216Z,26.23
2022-12-01T08:24:52.844Z,25.57
2022-12-01T08:27:41.143Z,23.90
2022-12-01T08:30:27.806Z,27.73
2022-12-01T08:33:14.516Z,25.30
2022-12-01T08:36:02.894Z,25.03
2022-12-01T08:38:53.091Z,22.10
2022-12-01T08:41:39.823Z,25.50
2022-12-01T08:44:27.943Z,27.00
2022-12-01T08:47:18.726Z,23.60
2022-12-01T08:50:07.183Z,23.17
2022-12-01T08:52:53.942Z,23.37
2022-12-01T08:55:40.379Z,22.70
2022-12-01T08:58:27.287Z,23.23
2022-12-01T09:01:16.907Z,20.47
2022-12-01T09:04:08.822Z,20.67
2022-12-01T09:06:57.518Z,19.70
2022-12-01T09:09:44.479Z,21.23
2022-12-01T09:12:31.335Z,17.40
2022-12-01T09:15:18.204Z,20.77
2022-12-01T09:18:07.211Z,19.37
2022-12-01T09:20:54.640Z,19.77
2022-12-01T09:23:41.422Z,19.43
2022-12-01T09:26:29.008Z,21.73
2022-12-01T09:29:17.630Z,21.20
2022-12-01T09:32:04.322Z,21.90
2022-12-01T09:34:52.606Z,20.23
2022-12-01T09:37:39.352Z,22.80
2022-12-01T09:40:31.877Z,21.03
2022-12-01T09:43:22.608Z,20.90
2022-12-01T09:46:15.673Z,19.23
2022-12-01T09:49:03.943Z,21.07
2022-12-01T09:51:53.781Z,18.47
2022-12-01T09:54:41.202Z,22.93
2022-12-01T09:57:32.538Z,21.73
2022-12-01T10:00:22.661Z,18.80
2022-12-01T10:03:23.026Z,21.93
2022-12-01T10:06:27.373Z,20.47
2022-12-01T10:09:24.595Z,20.10
2022-12-01T10:12:15.509Z,21.00
2022-12-01T10:15:15.476Z,22.83
2022-12-01T10:18:14.899Z,21.90
2022-12-01T10:21:08.607Z,20.70
2022-12-01T10:24:11.760Z,22.70
2022-12-01T10:27:09.932Z,20.67
2022-12-01T10:30:05.188Z,23.30
2022-12-01T10:32:54.386Z,21.13
2022-12-01T10:35:41.834Z,23.20
2022-12-01T10:38:32.706Z,21.23
2022-12-01T10:41:21.567Z,20.30
2022-12-01T10:44:10.680Z,23.50
2022-12-01T10:46:58.134Z,23.23
2022-12-01T10:49:44.868Z,21.67
2022-12-01T10:52:37.333Z,22.67
2022-12-01T10:55:30.079Z,23.10
2022-12-01T10:58:18.332Z,20.00
2022-12-01T11:01:07.891Z,22.80
2022-12-01T11:03:58.075Z,20.90
2022-12-01T11:06:50.898Z,21.60
2022-12-01T11:09:37.537Z,21.50
2022-12-01T11:12:24.883Z,20.40
2022-12-01T11:15:21.871Z,22.97
2022-12-01T11:18:23.398Z,20.70
2022-12-01T11:21:13.781Z,20.83
2022-12-01T11:24:00.442Z,22.77
2022-12-01T11:26:47.364Z,20.63
2022-12-01T11:29:37.370Z,20.57
2022-12-01T11:32:27.472Z,20.87
2022-12-01T11:35:21.099Z,21.93
2022-12-01T11:41:29.964Z,20.77
2022-12-01T11:44:49.698Z,21.17
2022-12-01T11:47:28.553Z,20.23
2022-12-01T11:50:29.627Z,19.10
2022-12-01T11:53:28.099Z,20.47
2022-12-01T11:56:17.982Z,18.67
2022-12-01T11:59:06.261Z,20.70
2022-12-01T12:02:21.781Z,21.23
2022-12-01T12:05:35.903Z,20.93
2022-12-01T12:08:36.687Z,20.63
2022-12-01T12:11:29.946Z,22.80
2022-12-01T12:14:52.249Z,21.80
2022-12-01T12:18:10.741Z,21.73
2022-12-01T12:21:09.802Z,22.10
2022-12-01T12:24:12.571Z,21.40
2022-12-01T12:27:10.163Z,21.77
2022-12-01T12:30:09.899Z,20.83
2022-12-01T12:33:42.213Z,20.83
2022-12-01T12:36:41.746Z,20.27
2022-12-01T12:39:41.973Z,21.63
2022-12-01T12:42:40.562Z,20.57
2022-12-01T12:45:37.054Z,22.07
2022-12-01T12:48:41.667Z,21.03
2022-12-01T12:51:44.097Z,21.90
2022-12-01T12:54:34.884Z,21.00
2022-12-01T12:57:26.910Z,21.33
2022-12-01T13:00:18.304Z,23.90
2022-12-01T13:03:14.482Z,20.43
2022-12-01T13:06:06.882Z,22.50
2022-12-01T13:09:02.323Z,22.40
2022-12-01T13:11:56.637Z,22.77
2022-12-01T13:14:48.278Z,21.37
2022-12-01T13:17:38.341Z,22.90
2022-12-01T13:20:28.931Z,22.57
2022-12-01T13:23:20.181Z,21.53
2022-12-01T13:26:10.628Z,22.30
2022-12-01T13:28:59.388Z,30.03
2022-12-01T13:31:49.005Z,30.43
2022-12-01T13:34:40.442Z,23.23
2022-12-01T13:37:30.048Z,22.67
2022-12-01T13:40:24.563Z,23.00
2022-12-01T13:43:19.768Z,25.70
2022-12-01T13:46:06.648Z,26.63
2022-12-01T13:48:55.133Z,25.97
2022-12-01T13:52:19.102Z,23.80
2022-12-01T13:55:26.494Z,21.20
2022-12-01T13:58:27.066Z,24.80
2022-12-01T14:01:56.867Z,23.50
2022-12-01T14:04:43.678Z,21.50
2022-12-01T14:07:37.047Z,24.47
2022-12-01T14:10:30.088Z,22.93
2022-12-01T14:13:21.300Z,20.73
2022-12-01T14:16:09.746Z,22.43
2022-12-01T14:18:58.571Z,19.40
2022-12-01T14:21:48.575Z,22.47
2022-12-01T14:24:38.020Z,23.03
2022-12-01T14:27:39.063Z,22.73
2022-12-01T14:31:03.819Z,20.57
2022-12-01T14:33:55.543Z,20.03
2022-12-01T14:36:43.802Z,21.20
2022-12-01T14:39:33.621Z,22.50
2022-12-01T14:42:46.512Z,21.57
2022-12-01T14:45:39.537Z,22.20
2022-12-01T14:48:34.075Z,20.87
2022-12-01T14:51:28.199Z,20.73
2022-12-01T14:54:22.016Z,20.87
2022-12-01T14:57:15.120Z,24.50
2022-12-01T15:00:11.090Z,18.50
2022-12-01T15:02:59.466Z,18.73
2022-12-01T15:05:45.966Z,19.43
2022-12-01T15:11:53.267Z,20.63
2022-12-01T15:14:48.117Z,18.77
2022-12-01T15:17:37.779Z,19.53
2022-12-01T15:20:33.188Z,19.93
2022-12-01T15:23:19.676Z,20.77
2022-12-01T15:26:08.233Z,18.63
2022-12-01T15:29:15.525Z,21.50
2022-12-01T15:32:04.173Z,18.33
2022-12-01T15:34:54.452Z,21.07
2022-12-01T15:37:44.403Z,21.53
2022-12-01T15:43:42.224Z,19.37
2022-12-01T15:46:30.694Z,19.57
2022-12-01T15:49:20.024Z,20.00
2022-12-01T15:52:09.233Z,20.23
2022-12-01T15:54:56.175Z,18.50
2022-12-01T15:57:47.721Z,18.63
2022-12-01T16:00:36.445Z,16.97
2022-12-01T16:03:23.313Z,18.03
2022-12-01T16:06:13.411Z,18.80
2022-12-01T16:09:02.656Z,20.33
2022-12-01T16:12:05.290Z,24.93
2022-12-01T16:14:57.823Z,29.23
2022-12-01T16:17:47.600Z,20.60
2022-12-01T16:20:36.645Z,21.60
2022-12-01T16:23:26.954Z,20.37
2022-12-01T16:26:14.175Z,17.27
2022-12-01T16:29:01.239Z,19.43
2022-12-01T16:32:12.537Z,17.70
2022-12-01T16:34:55.806Z,18.03
2022-12-01T16:37:42.461Z,21.87
2022-12-01T16:40:29.454Z,17.27
2022-12-01T16:43:16.940Z,20.10
2022-12-01T16:46:07.440Z,19.40
2022-12-01T16:48:54.269Z,19.80
2022-12-01T16:51:55.542Z,19.23
2022-12-01T16:54:43.310Z,16.67
2022-12-01T16:57:30.180Z,19.03
2022-12-01T17:00:17.708Z,18.97
2022-12-01T17:03:05.401Z,21.43
2022-12-01T17:05:52.985Z,19.67
2022-12-01T17:08:40.839Z,17.43
2022-12-01T17:11:27.437Z,18.30
2022-12-01T17:14:14.353Z,18.27
2022-12-01T17:17:01.139Z,19.73
2022-12-01T17:19:47.894Z,19.77
2022-12-01T17:22:38.078Z,18.77
2022-12-01T17:25:26.476Z,19.00
2022-12-01T17:28:13.087Z,17.80
2022-12-01T17:31:01.336Z,17.20
2022-12-01T17:33:48.023Z,15.80
2022-12-01T17:36:34.700Z,17.87
2022-12-01T17:39:21.336Z,18.27
2022-12-01T17:42:09.567Z,17.57
2022-12-01T17:44:56.528Z,17.90
2022-12-01T17:47:43.093Z,16.30
2022-12-01T17:50:29.891Z,18.00
2022-12-01T17:53:16.772Z,19.10
2022-12-01T17:56:10.066Z,16.20
2022-12-01T17:58:58.470Z,15.70
2022-12-01T18:01:45.284Z,17.30
2022-12-01T18:04:32.855Z,17.47
2022-12-01T18:07:24.630Z,18.00
2022-12-01T18:10:12.723Z,16.23
2022-12-01T18:12:59.628Z,18.33
2022-12-01T18:15:47.879Z,18.53
2022-12-01T18:18:34.642Z,18.27
2022-12-01T18:21:23.729Z,17.30
2022-12-01T18:24:11.041Z,17.50
2022-12-01T18:26:58.106Z,19.67
2022-12-01T18:29:44.711Z,16.67
2022-12-01T18:32:33.047Z,17.70
2022-12-01T18:35:19.668Z,16.70
2022-12-01T18:38:06.698Z,15.93
2022-12-01T18:40:53.654Z,16.53
2022-12-01T18:43:40.507Z,16.30
2022-12-01T18:46:27.042Z,17.00
2022-12-01T18:49:15.276Z,17.70
2022-12-01T18:52:03.835Z,17.37
2022-12-01T18:54:50.598Z,18.57
2022-12-01T18:57:37.187Z,16.87
2022-12-01T19:00:23.909Z,17.97
2022-12-01T19:03:11.061Z,16.50
2022-12-01T19:05:59.495Z,16.10
2022-12-01T19:08:46.277Z,15.37
2022-12-01T19:11:33.341Z,18.97
2022-12-01T19:14:20.149Z,19.33
2022-12-01T19:17:07.508Z,17.73
2022-12-01T19:19:53.889Z,16.37
2022-12-01T19:22:42.061Z,17.93
2022-12-01T19:25:28.808Z,16.40
2022-12-01T19:28:15.576Z,16.13
2022-12-01T19:31:06.723Z,16.20
2022-12-01T19:33:55.053Z,16.70
2022-12-01T19:36:43.943Z,16.80
2022-12-01T19:39:32.548Z,16.27
2022-12-01T19:42:19.355Z,18.53
2022-12-01T19:45:07.548Z,18.17
2022-12-01T19:47:54.306Z,16.80
2022-12-01T19:50:41.812Z,17.73
2022-12-01T19:53:33.333Z,16.90
2022-12-01T19:56:22.424Z,16.93
2022-12-01T19:59:11.320Z,16.83
2022-12-01T20:01:57.996Z,17.33
2022-12-01T20:04:44.819Z,17.30
2022-12-01T20:07:31.693Z,16.77
2022-12-01T20:10:20.376Z,16.20
2022-12-01T20:13:08.559Z,16.50
2022-12-01T20:15:55.365Z,16.83
2022-12-01T20:18:42.451Z,16.30
2022-12-01T20:21:31.170Z,17.40
2022-12-01T20:24:20.876Z,17.47
2022-12-01T20:27:07.894Z,17.73
2022-12-01T20:29:56.485Z,18.30
2022-12-01T20:32:43.074Z,15.73
2022-12-01T20:35:31.073Z,16.53
2022-12-01T20:38:25.781Z,17.10
2022-12-01T20:41:16.861Z,16.20
2022-12-01T20:44:07.205Z,17.07
2022-12-01T20:46:55.805Z,16.93
2022-12-01T20:49:42.703Z,17.60
2022-12-01T20:52:29.410Z,17.70
2022-12-01T20:55:16.359Z,18.27
2022-12-01T20:58:03.855Z,16.90
2022-12-01T21:00:50.476Z,17.00
2022-12-01T21:03:41.003Z,17.77
2022-12-01T21:06:29.202Z,18.13
2022-12-01T21:09:15.634Z,17.33
2022-12-01T21:12:21.793Z,17.07
2022-12-01T21:15:20.057Z,18.20
2022-12-01T21:18:13.511Z,16.40
2022-12-01T21:21:08.060Z,16.23
2022-12-01T21:24:13.547Z,17.17
2022-12-01T21:27:02.973Z,18.20
2022-12-01T21:29:50.582Z,18.77
2022-12-01T21:32:42.567Z,18.33
2022-12-01T21:35:30.250Z,18.77
2022-12-01T21:38:21.922Z,18.50
2022-12-01T21:41:17.257Z,17.07
2022-12-01T21:44:12.670Z,17.33
2022-12-01T21:46:59.321Z,18.07
2022-12-01T21:49:46.424Z,17.53
2022-12-01T21:52:39.477Z,18.60
2022-12-01T21:55:37.116Z,18.97
2022-12-01T21:58:28.167Z,18.20
2022-12-01T22:01:20.812Z,17.23
2022-12-01T22:04:16.129Z,17.53
2022-12-01T22:07:03.504Z,18.53
2022-12-01T22:09:50.628Z,16.90
2022-12-01T22:12:39.239Z,18.07
2022-12-01T22:15:37.397Z,18.87
2022-12-01T22:18:25.931Z,17.80
2022-12-01T22:21:33.054Z,18.67
2022-12-01T22:24:28.262Z,16.03
2022-12-01T22:27:29.724Z,18.87
2022-12-01T22:30:21.444Z,16.13
2022-12-01T22:33:16.103Z,16.30
2022-12-01T22:36:02.870Z,16.23
2022-12-01T22:38:49.897Z,16.53
2022-12-01T22:41:36.627Z,17.10
2022-12-01T22:44:23.368Z,15.70
2022-12-01T22:47:12.039Z,16.37
2022-12-01T22:50:02.757Z,18.53
2022-12-01T22:52:52.076Z,17.07
2022-12-01T22:55:39.150Z,16.43
2022-12-01T22:58:31.406Z,18.03
2022-12-01T23:01:26.278Z,17.07
2022-12-01T23:04:27.305Z,16.73
2022-12-01T23:07:28.731Z,17.53
2022-12-01T23:10:17.717Z,18.47
2022-12-01T23:13:14.722Z,17.87
2022-12-01T23:16:01.465Z,16.10
2022-12-01T23:18:48.229Z,15.47
2022-12-01T23:21:36.406Z,16.57
2022-12-01T23:24:22.913Z,17.80
2022-12-01T23:27:09.712Z,17.57
2022-12-01T23:29:56.224Z,16.57
2022-12-01T23:32:43.511Z,16.63
2022-12-01T23:35:30.541Z,16.97
2022-12-01T23:38:22.270Z,16.73
2022-12-01T23:41:13.845Z,17.07
2022-12-01T23:44:04.786Z,16.57
2022-12-01T23:46:54.546Z,17.93
2022-12-01T23:49:40.979Z,17.13
2022-12-01T23:52:33.409Z,16.63
2022-12-01T23:55:24.354Z,16.80
2022-12-01T23:58:14.756Z,17.83
